Latest Weather Observations for Nowra

IDN60901

Issued at 11:31 pm EST Wednesday 4 May 2016 (issued every 10 minutes, with the page automatically refreshed every 10 minutes)

About weather observations | Map of Canberra area stations | Latest observations for Canberra area | Other Formats
Station Details ID: 068072 Name: NOWRA RAN AIR STATION AWS Lat: -34.95 Lon: 150.54 Height: 109.0 m
Data from the previous 72 hours. | See also: Recent months at Nowra
Date/Time
EST
Tmp

°C
App
Tmp
°C
Dew
Point
°C
Rel
Hum
%
Delta-T

°C
Wind Press
QNH
hPa
Press
MSL
hPa
Rain
since
9 am
mm
Dir
 
Spd
km/h
Gust
km/h
Spd
kts
Gust
kts
04/11:00pm 13.1 11.9 12.9 99 0.1 W 11 13 6 7 1019.0 - 0.0
04/10:30pm 13.5 12.1 13.3 99 0.1 W 13 15 7 8 1019.1 - 0.0
04/10:00pm 14.0 12.3 13.7 98 0.2 W 15 17 8 9 1019.2 - 0.0
04/09:30pm 14.6 13.5 14.3 98 0.2 WNW 13 15 7 8 1019.2 - 0.0
04/09:00pm 14.3 13.1 14.1 99 0.1 W 13 15 7 8 1019.0 1019.0 0.0
04/08:30pm 14.5 13.4 14.3 99 0.1 W 13 15 7 8 1018.9 - 0.0
04/08:00pm 15.0 14.8 14.8 99 0.1 W 9 13 5 7 1018.4 - 0.0
04/07:30pm 16.4 17.0 15.3 93 0.6 WSW 6 9 3 5 1018.3 - 0.0
04/07:00pm 16.5 16.4 15.0 91 0.9 W 9 13 5 7 1017.9 - 0.0
04/06:30pm 16.1 17.4 14.1 88 1.1 CALM 0 0 0 0 1017.5 - 0.0
04/06:00pm 16.2 17.7 14.6 90 0.9 CALM 0 0 0 0 1017.1 1017.1 0.0
04/05:30pm 16.4 16.6 14.1 86 1.3 ESE 6 7 3 4 1016.6 - 0.0
04/05:00pm 16.7 16.3 14.0 84 1.5 SE 9 19 5 10 1016.2 - 0.0
04/04:30pm 17.4 16.2 13.9 80 2.0 ESE 13 17 7 9 1015.9 - 0.0
04/04:00pm 18.0 15.6 13.9 77 2.3 SE 19 26 10 14 1015.6 - 0.0
04/03:30pm 18.6 16.1 13.5 72 2.9 SE 19 24 10 13 1015.3 - 0.0
04/03:00pm 20.0 17.6 12.7 63 4.1 SSE 17 24 9 13 1015.0 1014.9 0.0
04/02:30pm 20.2 17.3 12.9 63 4.2 SSE 20 30 11 16 1014.6 - 0.0
04/02:00pm 20.6 17.7 12.8 61 4.4 SSE 20 26 11 14 1014.4 - 0.0
04/01:30pm 20.5 17.8 13.5 64 4.0 SSE 20 24 11 13 1014.2 - 0.0
04/01:00pm 20.3 16.7 11.8 58 4.7 SE 22 35 12 19 1014.0 - 0.0
04/12:30pm 21.5 18.5 11.8 54 5.4 S 19 22 10 12 1014.1 - 0.0
04/12:00pm 21.4 18.2 11.1 52 5.7 S 19 22 10 12 1014.4 - 0.0
04/11:30am 21.4 18.6 8.7 44 6.7 SSE 13 26 7 14 1014.5 - 0.0
04/11:00am 21.1 17.8 9.4 47 6.3 S 17 22 9 12 1014.7 - 0.0
04/10:30am 20.4 16.5 8.7 47 6.2 S 19 24 10 13 1014.7 - 0.0
04/10:00am 20.9 17.8 8.9 46 6.4 WSW 15 20 8 11 1014.6 - 0.0
04/09:30am 20.2 17.0 8.5 47 6.1 WNW 15 20 8 11 1014.3 - 0.0
04/09:00am 19.6 15.8 9.2 51 5.5 WNW 19 26 10 14 1014.2 1014.1 0.0
04/08:30am 18.6 13.7 8.3 51 5.3 WNW 24 30 13 16 1014.1 - 0.0
04/08:00am 17.7 13.4 8.0 53 5.0 WNW 20 26 11 14 1013.7 - 0.0
04/07:30am 17.0 13.1 7.1 52 5.0 WNW 17 26 9 14 1013.3 - 0.0
04/07:00am 16.2 12.5 6.1 51 4.9 W 15 19 8 10 1012.7 - 0.0
04/06:30am 15.4 11.9 5.6 52 4.7 W 13 17 7 9 1012.1 - 0.0
04/06:00am 15.9 12.4 5.5 50 5.0 WNW 13 19 7 10 1011.6 1011.6 0.0
04/05:30am 13.8 10.4 5.7 58 3.8 W 13 15 7 8 1011.3 - 0.0
04/05:00am 15.7 12.1 5.0 49 5.1 WNW 13 19 7 10 1010.9 - 0.0
04/04:30am 14.4 11.9 4.7 52 4.5 WNW 7 11 4 6 1010.5 - 0.0
04/04:00am 16.7 13.8 4.7 45 5.7 WNW 9 13 5 7 1010.2 - 0.0
04/03:30am 14.9 12.1 5.1 52 4.6 W 9 17 5 9 1009.9 - 0.0
04/03:00am 15.3 12.9 5.2 51 4.8 NW 7 13 4 7 1009.6 1009.6 0.0
04/02:30am 14.6 12.3 4.6 51 4.7 N 6 9 3 5 1009.4 - 0.0
04/02:00am 15.7 13.1 4.4 47 5.3 N 7 11 4 6 1009.2 - 0.0
04/01:30am 16.2 14.0 5.2 48 5.3 NNW 6 26 3 14 1009.2 - 0.0
04/01:00am 14.3 12.0 4.9 53 4.4 NNE 6 9 3 5 1009.2 - 0.0
04/12:30am 16.2 14.9 3.9 44 5.7 CALM 0 6 0 3 1009.2 - 0.0
04/12:00am 17.3 14.2 3.6 40 6.4 N 9 15 5 8 1009.1 1009.1 0.0
 
Date/Time
EST
Tmp

°C
App
Tmp
°C
Dew
Point
°C
Rel
Hum
%
Delta-T

°C
Wind Press
QNH
hPa
Press
MSL
hPa
Rain
since
9 am
mm
Dir
 
Spd
km/h
Gust
km/h
Spd
kts
Gust
kts
03/11:30pm 18.9 14.3 3.5 36 7.3 WNW 17 32 9 17 1009.2 - 0.0
03/11:00pm 18.7 14.2 4.1 38 7.0 WNW 17 24 9 13 1009.2 - 0.0
03/10:30pm 19.2 15.9 4.6 38 7.1 NNW 11 33 6 18 1008.9 - 0.0
03/10:00pm 18.8 15.1 4.6 39 6.8 NW 13 19 7 10 1008.7 - 0.0
03/09:30pm 19.0 14.2 4.7 39 6.9 NW 19 35 10 19 1008.5 - 0.0
03/09:00pm 19.2 15.7 5.3 40 6.8 NW 13 28 7 15 1008.1 1008.0 0.0
03/08:30pm 18.4 14.9 5.6 43 6.3 NW 13 26 7 14 1007.4 - 0.0
03/08:00pm 18.5 13.9 5.4 42 6.4 NNW 19 30 10 16 1006.9 - 0.0
03/07:30pm 18.8 14.1 5.3 41 6.6 NNW 19 24 10 13 1006.6 - 0.0
03/07:00pm 18.9 14.2 5.0 40 6.8 NNW 19 26 10 14 1006.2 - 0.0
03/06:30pm 19.3 14.9 5.0 39 7.0 NNW 17 28 9 15 1006.1 - 0.0
03/06:00pm 19.7 14.7 4.6 37 7.4 NW 20 32 11 17 1005.8 1005.7 0.0
03/05:30pm 20.1 14.3 4.2 35 7.7 NW 24 48 13 26 1005.5 - 0.0
03/05:00pm 20.8 14.5 4.0 33 8.1 WNW 26 46 14 25 1005.3 - 0.0
03/04:30pm 21.5 13.9 3.7 31 8.6 NW 33 43 18 23 1005.2 - 0.0
03/04:00pm 22.2 16.0 4.3 31 8.8 NW 26 43 14 23 1005.1 - 0.0
03/03:30pm 22.5 16.2 3.6 29 9.2 NW 26 39 14 21 1004.8 - 0.0
03/03:00pm 22.9 16.0 4.4 30 9.2 NW 30 46 16 25 1004.8 1004.7 0.0
03/02:30pm 23.1 16.6 4.6 30 9.2 NW 28 41 15 22 1005.0 - 0.0
03/02:00pm 23.0 16.6 5.4 32 8.9 NW 28 39 15 21 1005.2 - 0.0
03/01:30pm 23.1 17.3 4.6 30 9.2 NW 24 35 13 19 1005.7 - 0.0
03/01:01pm 22.5 15.9 4.1 30 9.0 NW 28 46 15 25 1006.1 - 0.0
03/12:30pm 22.9 17.9 4.4 30 9.1 NW 20 37 11 20 1006.7 - 0.0
03/12:00pm 22.2 15.6 4.3 31 8.8 NW 28 43 15 23 1007.0 1006.9 0.0
03/11:30am 22.2 17.3 5.2 33 8.5 WNW 20 30 11 16 1007.6 - 0.0
03/11:00am 21.2 13.7 4.7 34 8.1 WNW 33 52 18 28 1008.1 - 0.0
03/10:50am 20.8 12.5 4.0 33 8.1 WNW 37 57 20 31 1008.3 - 0.0
03/10:47am 20.9 12.3 4.9 35 7.9 W 39 46 21 25 1008.4 - 0.0
03/10:30am 20.5 14.3 4.5 35 7.8 NW 26 39 14 21 1008.6 - 0.0
03/10:11am 19.8 13.2 4.3 36 7.5 NW 28 46 15 25 1009.1 - 0.0
03/10:00am 19.7 13.8 5.7 40 6.9 NW 26 37 14 20 1009.2 - 0.0
03/09:30am 18.7 14.1 6.5 45 6.1 NNW 20 28 11 15 1009.6 - 0.0
03/09:00am 17.6 13.5 6.2 47 5.6 NNW 17 26 9 14 1010.0 1010.0 0.0
03/08:30am 16.3 11.5 4.7 46 5.5 NNW 19 30 10 16 1010.4 - 0.0
03/08:00am 15.8 11.5 5.1 49 5.1 NNW 17 24 9 13 1010.6 - 0.0
03/07:30am 15.2 12.1 5.4 52 4.7 NNW 11 15 6 8 1010.7 - 0.0
03/07:00am 14.5 10.9 4.8 52 4.5 NNW 13 19 7 10 1010.5 - 0.0
03/06:30am 14.5 9.7 4.5 51 4.7 NW 19 26 10 14 1010.4 - 0.0
03/06:00am 14.7 10.7 4.7 51 4.7 NW 15 26 8 14 1010.2 1010.2 0.0
03/05:30am 14.6 11.2 4.0 49 4.9 NW 11 17 6 9 1009.9 - 0.0
03/05:00am 14.7 10.1 3.8 48 5.0 WNW 17 26 9 14 1009.7 - 0.0
03/04:30am 15.1 10.2 3.9 47 5.2 WNW 19 26 10 14 1009.4 - 0.0
03/04:00am 14.0 9.2 4.6 53 4.4 WNW 19 32 10 17 1009.7 - 0.0
03/03:30am 12.3 9.0 4.5 59 3.6 NNW 11 22 6 12 1009.8 - 0.0
03/03:00am 11.6 7.9 4.3 61 3.3 NW 13 17 7 9 1010.2 1010.2 0.0
03/02:30am 11.2 8.2 4.2 62 3.2 NNW 9 11 5 6 1010.6 - 0.0
03/02:00am 11.6 8.2 4.1 60 3.4 N 11 19 6 10 1011.0 - 0.0
03/01:30am 12.0 8.3 4.5 60 3.4 NNW 13 17 7 9 1011.5 - 0.0
03/01:00am 11.7 8.7 4.2 60 3.4 N 9 11 5 6 1012.1 - 0.0
03/12:30am 11.7 8.4 4.4 61 3.3 N 11 13 6 7 1012.7 - 0.0
03/12:00am 12.1 8.0 4.3 59 3.5 NNW 15 19 8 10 1013.3 1013.2 0.0
 
Date/Time
EST
Tmp

°C
App
Tmp
°C
Dew
Point
°C
Rel
Hum
%
Delta-T

°C
Wind Press
QNH
hPa
Press
MSL
hPa
Rain
since
9 am
mm
Dir
 
Spd
km/h
Gust
km/h
Spd
kts
Gust
kts
02/11:30pm 12.5 8.4 4.5 58 3.7 NNW 15 17 8 9 1013.6 - 0.0
02/11:00pm 12.6 8.5 4.6 58 3.7 NNW 15 19 8 10 1013.6 - 0.0
02/10:30pm 13.3 9.6 4.2 54 4.2 NNW 13 19 7 10 1013.4 - 0.0
02/10:00pm 13.0 9.9 3.7 53 4.2 NNW 9 11 5 6 1013.5 - 0.0
02/09:30pm 14.2 9.6 3.7 49 4.8 WNW 17 22 9 12 1013.6 - 0.0
02/09:00pm 14.7 9.7 3.5 47 5.1 WNW 19 28 10 15 1013.6 1013.5 0.0
02/08:30pm 15.4 10.2 3.5 45 5.5 W 20 30 11 16 1013.6 - 0.0
02/08:00pm 15.7 10.5 3.8 45 5.5 WNW 20 33 11 18 1013.0 - 0.0
02/07:30pm 16.1 10.3 4.2 45 5.6 WNW 24 32 13 17 1012.7 - 0.0
02/07:00pm 16.3 11.4 4.0 44 5.7 WNW 19 28 10 15 1012.7 - 0.0
02/06:30pm 16.9 11.8 4.3 43 6.0 WNW 20 30 11 16 1012.6 - 0.0
02/06:00pm 16.8 12.3 4.2 43 5.9 W 17 24 9 13 1012.4 1012.4 0.0
02/05:30pm 17.2 13.5 4.2 42 6.1 W 13 19 7 10 1012.3 - 0.0
02/05:00pm 18.6 15.3 4.4 39 6.8 WNW 11 17 6 9 1011.6 - 0.0
02/04:30pm 19.9 14.8 3.2 33 7.9 WNW 19 26 10 14 1011.7 - 0.0
02/04:00pm 20.1 14.3 2.5 31 8.2 WNW 22 32 12 17 1011.5 - 0.0
02/03:30pm 21.0 14.7 1.8 28 8.9 WNW 24 35 13 19 1011.6 - 0.0
02/03:00pm 20.9 16.5 2.7 30 8.6 NW 15 24 8 13 1011.6 1011.6 0.0
02/02:30pm 21.9 16.3 1.5 26 9.5 WNW 20 28 11 15 1011.3 - 0.0
02/02:00pm 21.3 15.8 0.5 25 9.4 WNW 19 30 10 16 1011.3 - 0.0
02/01:30pm 21.3 15.8 1.6 27 9.1 WNW 20 30 11 16 1012.2 - 0.0
02/01:00pm 20.7 15.7 1.6 28 8.8 NNW 17 26 9 14 1012.7 - 0.0
02/12:30pm 20.1 15.0 1.0 28 8.7 WNW 17 24 9 13 1012.6 - 0.0
02/12:00pm 20.0 15.1 1.9 30 8.3 NW 17 26 9 14 1013.4 1013.3 0.0
02/11:30am 19.1 13.4 0.7 29 8.2 W 20 30 11 16 1013.9 - 0.0
02/11:00am 18.6 13.5 0.7 30 8.0 W 17 24 9 13 1014.5 - 0.0
02/10:30am 18.2 13.5 0.8 31 7.7 WNW 15 22 8 12 1015.0 - 0.0
02/10:00am 17.4 12.8 1.8 35 7.0 WNW 15 20 8 11 1015.4 - 0.0
02/09:30am 17.0 12.4 1.8 36 6.8 WNW 15 26 8 14 1015.7 - 0.0
02/09:00am 16.3 12.5 1.6 37 6.5 WNW 11 17 6 9 1016.2 1016.1 0.0
02/08:30am 15.3 11.9 2.1 41 5.9 NNW 9 20 5 11 1016.1 - 0.0
02/08:00am 14.1 11.1 4.1 51 4.6 NE 9 15 5 8 1015.9 - 0.0
02/07:30am 13.8 8.4 2.7 47 4.9 WNW 20 35 11 19 1015.6 - 0.0
02/07:00am 12.8 5.6 2.9 51 4.4 WNW 30 43 16 23 1015.2 - 0.0
02/06:30am 12.5 4.4 3.5 54 4.0 WNW 35 44 19 24 1015.1 - 0.0
02/06:00am 12.2 4.7 3.7 56 3.8 WNW 32 41 17 22 1015.1 1015.0 0.0
02/05:30am 12.1 5.1 4.1 58 3.6 W 30 35 16 19 1015.1 - 0.0
02/05:00am 12.1 5.5 4.1 58 3.6 W 28 33 15 18 1014.9 - 0.0
02/04:30am 12.3 7.2 4.3 58 3.6 WNW 20 28 11 15 1014.8 - 0.0
02/04:00am 12.4 6.6 4.6 59 3.6 W 24 30 13 16 1014.6 - 0.0
02/03:30am 12.7 7.7 4.7 58 3.7 WNW 20 30 11 16 1014.9 - 0.0
02/03:00am 12.7 7.8 4.9 59 3.6 WNW 20 24 11 13 1015.3 1015.2 0.0
02/02:30am 12.6 8.7 5.3 61 3.4 WNW 15 19 8 10 1015.7 - 0.0
02/02:00am 13.0 9.3 4.7 57 3.8 WNW 13 17 7 9 1015.6 - 0.0
02/01:30am 13.1 10.2 4.5 56 4.0 WNW 9 15 5 8 1015.8 - 0.0
02/01:00am 13.7 10.1 4.8 55 4.1 WNW 13 20 7 11 1015.7 - 0.0
02/12:30am 13.7 10.8 4.6 54 4.2 NW 9 13 5 7 1015.7 - 0.0
02/12:00am 13.4 10.5 4.6 55 4.1 W 9 11 5 6 1015.9 1015.8 0.0

Latest Capital City Observations: Canberra | Sydney | Melbourne | Brisbane | Adelaide | Perth | Hobart | Darwin

Other Formats:

Comma delimited format used in spreadsheet applications
http://www.bom.gov.au/fwo/IDN60903/IDN60903.94750.axf

JavaScript Object Notation format (JSON) in row-major order
http://www.bom.gov.au/fwo/IDN60903/IDN60903.94750.json